sensor_id;sensor_type;location;lat;lon;timestamp;pressure;altitude;pressure_sealevel;temperature;humidity
47985;BME280;33753;52.912;-7.342;2023-02-28T00:01:39;102377.88;;;3.91;100.00
47985;BME280;33753;52.912;-7.342;2023-02-28T00:04:12;102376.19;;;3.90;100.00
47985;BME280;33753;52.912;-7.342;2023-02-28T00:06:41;102377.88;;;3.91;100.00
47985;BME280;33753;52.912;-7.342;2023-02-28T00:09:10;102377.97;;;3.90;100.00
47985;BME280;33753;52.912;-7.342;2023-02-28T00:11:38;102374.44;;;3.89;100.00
47985;BME280;33753;52.912;-7.342;2023-02-28T00:14:07;102373.63;;;3.87;100.00
47985;BME280;33753;52.912;-7.342;2023-02-28T00:16:41;102378.13;;;3.87;100.00
47985;BME280;33753;52.912;-7.342;2023-02-28T00:19:10;102376.19;;;3.90;100.00
47985;BME280;33753;52.912;-7.342;2023-02-28T00:21:39;102378.06;;;3.88;100.00
47985;BME280;33753;52.912;-7.342;2023-02-28T00:24:10;102379.78;;;3.89;100.00
47985;BME280;33753;52.912;-7.342;2023-02-28T00:26:41;102381.19;;;3.96;100.00
47985;BME280;33753;52.912;-7.342;2023-02-28T00:29:09;102382.03;;;3.97;100.00
47985;BME280;33753;52.912;-7.342;2023-02-28T00:31:38;102375.84;;;3.96;100.00
47985;BME280;33753;52.912;-7.342;2023-02-28T00:34:07;102376.59;;;3.98;100.00
47985;BME280;33753;52.912;-7.342;2023-02-28T00:36:36;102382.78;;;4.01;100.00
47985;BME280;33753;52.912;-7.342;2023-02-28T00:39:04;102397.09;;;4.00;100.00
47985;BME280;33753;52.912;-7.342;2023-02-28T00:41:33;102389.88;;;4.02;100.00
47985;BME280;33753;52.912;-7.342;2023-02-28T00:44:01;102398.84;;;4.01;100.00
47985;BME280;33753;52.912;-7.342;2023-02-28T00:46:31;102394.25;;;4.03;100.00
47985;BME280;33753;52.912;-7.342;2023-02-28T00:48:59;102398.66;;;4.04;100.00
47985;BME280;33753;52.912;-7.342;2023-02-28T00:51:29;102399.53;;;4.04;100.00
47985;BME280;33753;52.912;-7.342;2023-02-28T00:53:57;102396.06;;;4.02;100.00
47985;BME280;33753;52.912;-7.342;2023-02-28T00:56:25;102394.34;;;4.01;100.00
47985;BME280;33753;52.912;-7.342;2023-02-28T00:58:53;102402.44;;;4.00;100.00
47985;BME280;33753;52.912;-7.342;2023-02-28T01:01:22;102407.81;;;4.00;100.00
47985;BME280;33753;52.912;-7.342;2023-02-28T01:03:51;102406.06;;;3.98;100.00
47985;BME280;33753;52.912;-7.342;2023-02-28T01:06:19;102408.81;;;3.97;100.00
47985;BME280;33753;52.912;-7.342;2023-02-28T01:08:49;102406.22;;;3.95;100.00
47985;BME280;33753;52.912;-7.342;2023-02-28T01:11:18;102409.72;;;3.97;100.00
47985;BME280;33753;52.912;-7.342;2023-02-28T01:13:46;102415.91;;;3.98;100.00
47985;BME280;33753;52.912;-7.342;2023-02-28T01:16:14;102420.41;;;3.97;100.00
47985;BME280;33753;52.912;-7.342;2023-02-28T01:18:44;102423.00;;;3.99;100.00
47985;BME280;33753;52.912;-7.342;2023-02-28T01:21:12;102425.69;;;3.99;100.00
47985;BME280;33753;52.912;-7.342;2023-02-28T01:23:41;102424.72;;;4.00;100.00
47985;BME280;33753;52.912;-7.342;2023-02-28T01:26:11;102413.16;;;4.00;100.00
47985;BME280;33753;52.912;-7.342;2023-02-28T01:28:40;102420.41;;;3.97;100.00
47985;BME280;33753;52.912;-7.342;2023-02-28T01:31:09;102419.63;;;3.95;100.00
47985;BME280;33753;52.912;-7.342;2023-02-28T01:33:37;102411.59;;;3.95;100.00
47985;BME280;33753;52.912;-7.342;2023-02-28T01:36:06;102413.56;;;3.92;100.00
47985;BME280;33753;52.912;-7.342;2023-02-28T01:38:35;102418.13;;;3.90;100.00
47985;BME280;33753;52.912;-7.342;2023-02-28T01:41:04;102422.78;;;3.86;100.00
47985;BME280;33753;52.912;-7.342;2023-02-28T01:43:51;102423.72;;;3.85;100.00
47985;BME280;33753;52.912;-7.342;2023-02-28T01:46:20;102422.94;;;3.83;100.00
47985;BME280;33753;52.912;-7.342;2023-02-28T01:48:50;102425.63;;;3.83;100.00
47985;BME280;33753;52.912;-7.342;2023-02-28T01:51:20;102426.72;;;3.79;100.00
47985;BME280;33753;52.912;-7.342;2023-02-28T01:53:52;102423.25;;;3.77;100.00
47985;BME280;33753;52.912;-7.342;2023-02-28T01:56:22;102424.13;;;3.77;100.00
47985;BME280;33753;52.912;-7.342;2023-02-28T01:58:53;102425.00;;;3.78;100.00
47985;BME280;33753;52.912;-7.342;2023-02-28T02:01:22;102432.06;;;3.79;100.00
47985;BME280;33753;52.912;-7.342;2023-02-28T02:03:54;102426.72;;;3.79;100.00
47985;BME280;33753;52.912;-7.342;2023-02-28T02:06:25;102424.06;;;3.79;100.00
47985;BME280;33753;52.912;-7.342;2023-02-28T02:08:54;102426.16;;;3.72;100.00
47985;BME280;33753;52.912;-7.342;2023-02-28T02:11:23;102429.78;;;3.71;100.00
47985;BME280;33753;52.912;-7.342;2023-02-28T02:13:57;102424.50;;;3.70;100.00
47985;BME280;33753;52.912;-7.342;2023-02-28T02:16:47;102427.19;;;3.70;100.00
47985;BME280;33753;52.912;-7.342;2023-02-28T02:19:25;102422.84;;;3.67;100.00
47985;BME280;33753;52.912;-7.342;2023-02-28T02:24:58;102420.25;;;3.66;100.00
47985;BME280;33753;52.912;-7.342;2023-02-28T02:27:39;102417.81;;;3.61;100.00
47985;BME280;33753;52.912;-7.342;2023-02-28T02:35:42;102412.53;;;3.59;100.00
47985;BME280;33753;52.912;-7.342;2023-02-28T02:38:17;102413.47;;;3.58;100.00
47985;BME280;33753;52.912;-7.342;2023-02-28T02:40:49;102413.47;;;3.58;100.00
47985;BME280;33753;52.912;-7.342;2023-02-28T02:43:22;102415.22;;;3.59;100.00
47985;BME280;33753;52.912;-7.342;2023-02-28T02:45:55;102416.16;;;3.58;100.00
47985;BME280;33753;52.912;-7.342;2023-02-28T02:48:25;102416.06;;;3.60;100.00
47985;BME280;33753;52.912;-7.342;2023-02-28T02:50:58;102420.56;;;3.59;100.00
47985;BME280;33753;52.912;-7.342;2023-02-28T02:53:28;102418.81;;;3.58;100.00
47985;BME280;33753;52.912;-7.342;2023-02-28T02:55:59;102413.47;;;3.58;100.00
47985;BME280;33753;52.912;-7.342;2023-02-28T02:58:31;102415.06;;;3.62;100.00
47985;BME280;33753;52.912;-7.342;2023-02-28T03:01:00;102418.81;;;3.58;100.00
47985;BME280;33753;52.912;-7.342;2023-02-28T03:03:30;102425.84;;;3.61;100.00
47985;BME280;33753;52.912;-7.342;2023-02-28T03:06:03;102414.13;;;3.63;100.00
47985;BME280;33753;52.912;-7.342;2023-02-28T03:08:33;102418.66;;;3.61;100.00
47985;BME280;33753;52.912;-7.342;2023-02-28T03:11:03;102414.28;;;3.60;100.00
47985;BME280;33753;52.912;-7.342;2023-02-28T03:13:39;102416.06;;;3.60;100.00
47985;BME280;33753;52.912;-7.342;2023-02-28T03:16:18;102423.25;;;3.59;100.00
47985;BME280;33753;52.912;-7.342;2023-02-28T03:18:51;102416.22;;;3.57;100.00
47985;BME280;33753;52.912;-7.342;2023-02-28T03:21:25;102412.69;;;3.56;100.00
47985;BME280;33753;52.912;-7.342;2023-02-28T03:23:57;102415.63;;;3.52;100.00
47985;BME280;33753;52.912;-7.342;2023-02-28T03:26:28;102422.59;;;3.54;100.00
47985;BME280;33753;52.912;-7.342;2023-02-28T03:28:59;102427.81;;;3.57;100.00
47985;BME280;33753;52.912;-7.342;2023-02-28T03:31:30;102425.22;;;3.56;100.00
47985;BME280;33753;52.912;-7.342;2023-02-28T03:34:02;102419.00;;;3.55;100.00
47985;BME280;33753;52.912;-7.342;2023-02-28T03:36:34;102408.44;;;3.52;100.00
47985;BME280;33753;52.912;-7.342;2023-02-28T03:39:11;102424.34;;;3.55;100.00
47985;BME280;33753;52.912;-7.342;2023-02-28T03:41:42;102426.25;;;3.53;100.00
47985;BME280;33753;52.912;-7.342;2023-02-28T03:44:15;102431.75;;;3.50;100.00
47985;BME280;33753;52.912;-7.342;2023-02-28T03:46:45;102425.28;;;3.54;100.00
47985;BME280;33753;52.912;-7.342;2023-02-28T03:49:16;102427.00;;;3.55;100.00
47985;BME280;33753;52.912;-7.342;2023-02-28T03:51:47;102427.09;;;3.54;100.00
47985;BME280;33753;52.912;-7.342;2023-02-28T03:54:18;102432.38;;;3.55;100.00
47985;BME280;33753;52.912;-7.342;2023-02-28T03:56:48;102438.66;;;3.54;100.00
47985;BME280;33753;52.912;-7.342;2023-02-28T03:59:20;102435.19;;;3.52;100.00
47985;BME280;33753;52.912;-7.342;2023-02-28T04:01:50;102428.28;;;3.48;100.00
47985;BME280;33753;52.912;-7.342;2023-02-28T04:04:19;102444.16;;;3.51;100.00
47985;BME280;33753;52.912;-7.342;2023-02-28T04:06:50;102441.56;;;3.50;100.00
47985;BME280;33753;52.912;-7.342;2023-02-28T04:09:19;102447.81;;;3.50;100.00
47985;BME280;33753;52.912;-7.342;2023-02-28T04:11:48;102460.22;;;3.51;100.00
47985;BME280;33753;52.912;-7.342;2023-02-28T04:14:18;102454.09;;;3.49;100.00
47985;BME280;33753;52.912;-7.342;2023-02-28T04:16:47;102447.66;;;3.53;100.00
47985;BME280;33753;52.912;-7.342;2023-02-28T04:19:15;102447.66;;;3.53;100.00
47985;BME280;33753;52.912;-7.342;2023-02-28T04:21:43;102447.72;;;3.52;100.00
47985;BME280;33753;52.912;-7.342;2023-02-28T04:24:14;102445.91;;;3.52;100.00
47985;BME280;33753;52.912;-7.342;2023-02-28T04:26:44;102460.94;;;3.55;100.00
47985;BME280;33753;52.912;-7.342;2023-02-28T04:29:14;102454.88;;;3.51;100.00
47985;BME280;33753;52.912;-7.342;2023-02-28T04:31:45;102465.56;;;3.51;100.00
47985;BME280;33753;52.912;-7.342;2023-02-28T04:34:14;102463.97;;;3.47;100.00
47985;BME280;33753;52.912;-7.342;2023-02-28T04:36:42;102457.78;;;3.46;100.00
47985;BME280;33753;52.912;-7.342;2023-02-28T04:39:10;102460.53;;;3.45;100.00
47985;BME280;33753;52.912;-7.342;2023-02-28T04:41:40;102468.56;;;3.45;100.00
47985;BME280;33753;52.912;-7.342;2023-02-28T04:44:08;102470.38;;;3.44;100.00
47985;BME280;33753;52.912;-7.342;2023-02-28T04:46:36;102475.94;;;3.40;100.00
47985;BME280;33753;52.912;-7.342;2023-02-28T04:49:04;102471.38;;;3.42;100.00
47985;BME280;33753;52.912;-7.342;2023-02-28T04:51:32;102475.16;;;3.38;100.00
47985;BME280;33753;52.912;-7.342;2023-02-28T04:54:01;102477.91;;;3.36;100.00
47985;BME280;33753;52.912;-7.342;2023-02-28T04:56:29;102486.00;;;3.35;100.00
47985;BME280;33753;52.912;-7.342;2023-02-28T04:58:59;102481.66;;;3.32;100.00
47985;BME280;33753;52.912;-7.342;2023-02-28T05:01:28;102493.22;;;3.33;100.00
47985;BME280;33753;52.912;-7.342;2023-02-28T05:03:57;102493.22;;;3.33;100.00
47985;BME280;33753;52.912;-7.342;2023-02-28T05:06:27;102502.97;;;3.34;100.00
47985;BME280;33753;52.912;-7.342;2023-02-28T05:08:55;102507.47;;;3.33;100.00
47985;BME280;33753;52.912;-7.342;2023-02-28T05:11:24;102512.91;;;3.32;100.00
47985;BME280;33753;52.912;-7.342;2023-02-28T05:13:53;102515.63;;;3.30;100.00
47985;BME280;33753;52.912;-7.342;2023-02-28T05:16:23;102520.97;;;3.30;100.00
47985;BME280;33753;52.912;-7.342;2023-02-28T05:18:51;102531.66;;;3.30;100.00
47985;BME280;33753;52.912;-7.342;2023-02-28T05:21:26;102533.63;;;3.26;100.00
47985;BME280;33753;52.912;-7.342;2023-02-28T05:23:56;102538.13;;;3.26;100.00
47985;BME280;33753;52.912;-7.342;2023-02-28T05:26:24;102541.50;;;3.29;100.00
47985;BME280;33753;52.912;-7.342;2023-02-28T05:28:53;102537.09;;;3.28;100.00
47985;BME280;33753;52.912;-7.342;2023-02-28T05:31:22;102541.50;;;3.29;100.00
47985;BME280;33753;52.912;-7.342;2023-02-28T05:33:51;102547.69;;;3.32;100.00
47985;BME280;33753;52.912;-7.342;2023-02-28T05:36:19;102547.53;;;3.35;100.00
47985;BME280;33753;52.912;-7.342;2023-02-28T05:38:48;102549.19;;;3.37;100.00
47985;BME280;33753;52.912;-7.342;2023-02-28T05:41:17;102548.16;;;3.40;100.00
47985;BME280;33753;52.912;-7.342;2023-02-28T05:43:46;102549.91;;;3.41;100.00
47985;BME280;33753;52.912;-7.342;2023-02-28T05:46:14;102553.44;;;3.41;100.00
47985;BME280;33753;52.912;-7.342;2023-02-28T05:48:45;102547.16;;;3.42;100.00
47985;BME280;33753;52.912;-7.342;2023-02-28T05:51:14;102549.75;;;3.44;100.00
47985;BME280;33753;52.912;-7.342;2023-02-28T05:53:42;102548.00;;;3.43;100.00
47985;BME280;33753;52.912;-7.342;2023-02-28T05:56:10;102550.63;;;3.44;100.00
47985;BME280;33753;52.912;-7.342;2023-02-28T05:58:38;102550.63;;;3.44;100.00
47985;BME280;33753;52.912;-7.342;2023-02-28T06:01:19;102546.06;;;3.46;100.00
47985;BME280;33753;52.912;-7.342;2023-02-28T06:03:49;102546.00;;;3.48;100.00
47985;BME280;33753;52.912;-7.342;2023-02-28T06:06:17;102548.50;;;3.51;100.00
47985;BME280;33753;52.912;-7.342;2023-02-28T06:08:46;102543.97;;;3.53;100.00
47985;BME280;33753;52.912;-7.342;2023-02-28T06:11:14;102558.13;;;3.55;100.00
47985;BME280;33753;52.912;-7.342;2023-02-28T06:13:42;102552.78;;;3.55;100.00
47985;BME280;33753;52.912;-7.342;2023-02-28T06:16:11;102560.81;;;3.55;100.00
47985;BME280;33753;52.912;-7.342;2023-02-28T06:18:39;102560.81;;;3.55;100.00
47985;BME280;33753;52.912;-7.342;2023-02-28T06:21:09;102565.38;;;3.53;100.00
47985;BME280;33753;52.912;-7.342;2023-02-28T06:23:37;102555.53;;;3.54;100.00
47985;BME280;33753;52.912;-7.342;2023-02-28T06:26:05;102561.72;;;3.54;100.00
47985;BME280;33753;52.912;-7.342;2023-02-28T06:28:33;102553.09;;;3.49;100.00
47985;BME280;33753;52.912;-7.342;2023-02-28T06:31:05;102553.00;;;3.51;100.00
47985;BME280;33753;52.912;-7.342;2023-02-28T06:33:34;102549.47;;;3.50;100.00
47985;BME280;33753;52.912;-7.342;2023-02-28T06:36:03;102555.84;;;3.48;100.00
47985;BME280;33753;52.912;-7.342;2023-02-28T06:38:33;102554.94;;;3.47;100.00
47985;BME280;33753;52.912;-7.342;2023-02-28T06:41:01;102546.13;;;3.45;100.00
47985;BME280;33753;52.912;-7.342;2023-02-28T06:43:30;102553.34;;;3.43;100.00
47985;BME280;33753;52.912;-7.342;2023-02-28T06:45:59;102548.16;;;3.40;100.00
47985;BME280;33753;52.912;-7.342;2023-02-28T06:48:28;102551.72;;;3.40;100.00
47985;BME280;33753;52.912;-7.342;2023-02-28T06:51:01;102557.34;;;3.34;100.00
47985;BME280;33753;52.912;-7.342;2023-02-28T06:53:29;102552.94;;;3.33;100.00
47985;BME280;33753;52.912;-7.342;2023-02-28T06:55:59;102553.06;;;3.30;100.00
47985;BME280;33753;52.912;-7.342;2023-02-28T06:58:27;102570.00;;;3.31;100.00
47985;BME280;33753;52.912;-7.342;2023-02-28T07:00:56;102565.66;;;3.28;100.00
47985;BME280;33753;52.912;-7.342;2023-02-28T07:03:24;102569.25;;;3.27;100.00
47985;BME280;33753;52.912;-7.342;2023-02-28T07:05:52;102571.09;;;3.26;100.00
47985;BME280;33753;52.912;-7.342;2023-02-28T07:08:20;102577.38;;;3.25;100.00
47985;BME280;33753;52.912;-7.342;2023-02-28T07:10:51;102581.13;;;3.21;100.00
47985;BME280;33753;52.912;-7.342;2023-02-28T07:13:21;102595.44;;;3.20;100.00
47985;BME280;33753;52.912;-7.342;2023-02-28T07:15:53;102589.13;;;3.21;100.00
47985;BME280;33753;52.912;-7.342;2023-02-28T07:18:21;102588.28;;;3.21;100.00
47985;BME280;33753;52.912;-7.342;2023-02-28T07:20:49;102590.97;;;3.21;100.00
47985;BME280;33753;52.912;-7.342;2023-02-28T07:23:18;102597.31;;;3.18;100.00
47985;BME280;33753;52.912;-7.342;2023-02-28T07:25:46;102600.06;;;3.17;100.00
47985;BME280;33753;52.912;-7.342;2023-02-28T07:28:14;102607.22;;;3.16;100.00
47985;BME280;33753;52.912;-7.342;2023-02-28T07:30:44;102600.91;;;3.17;100.00
47985;BME280;33753;52.912;-7.342;2023-02-28T07:33:12;102608.94;;;3.17;100.00
47985;BME280;33753;52.912;-7.342;2023-02-28T07:35:40;102615.97;;;3.20;100.00
47985;BME280;33753;52.912;-7.342;2023-02-28T07:38:08;102618.69;;;3.18;100.00
47985;BME280;33753;52.912;-7.342;2023-02-28T07:40:37;102611.59;;;3.17;100.00
47985;BME280;33753;52.912;-7.342;2023-02-28T07:43:05;102620.38;;;3.21;100.00
47985;BME280;33753;52.912;-7.342;2023-02-28T07:45:33;102623.91;;;3.21;100.00
47985;BME280;33753;52.912;-7.342;2023-02-28T07:48:03;102620.16;;;3.25;100.00
47985;BME280;33753;52.912;-7.342;2023-02-28T07:50:31;102621.91;;;3.26;100.00
47985;BME280;33753;52.912;-7.342;2023-02-28T07:53:01;102632.47;;;3.29;100.00
47985;BME280;33753;52.912;-7.342;2023-02-28T07:55:29;102636.66;;;3.35;100.00
47985;BME280;33753;52.912;-7.342;2023-02-28T07:57:57;102635.66;;;3.38;100.00
47985;BME280;33753;52.912;-7.342;2023-02-28T08:00:26;102640.84;;;3.41;100.00
47985;BME280;33753;52.912;-7.342;2023-02-28T08:02:55;102636.16;;;3.46;100.00
47985;BME280;33753;52.912;-7.342;2023-02-28T08:05:25;102644.06;;;3.49;100.00
47985;BME280;33753;52.912;-7.342;2023-02-28T08:07:53;102647.25;;;3.57;100.00
47985;BME280;33753;52.912;-7.342;2023-02-28T08:10:21;102648.81;;;3.61;100.00
47985;BME280;33753;52.912;-7.342;2023-02-28T08:12:50;102649.41;;;3.68;100.00
47985;BME280;33753;52.912;-7.342;2023-02-28T08:15:18;102646.41;;;3.74;100.00
47985;BME280;33753;52.912;-7.342;2023-02-28T08:17:47;102649.84;;;3.78;100.00
47985;BME280;33753;52.912;-7.342;2023-02-28T08:20:15;102652.44;;;3.79;100.00
47985;BME280;33753;52.912;-7.342;2023-02-28T08:22:44;102652.34;;;3.81;100.00
47985;BME280;33753;52.912;-7.342;2023-02-28T08:25:13;102649.53;;;3.84;100.00
47985;BME280;33753;52.912;-7.342;2023-02-28T08:27:41;102654.81;;;3.86;100.00
47985;BME280;33753;52.912;-7.342;2023-02-28T08:30:10;102653.66;;;3.91;100.00
47985;BME280;33753;52.912;-7.342;2023-02-28T08:32:38;102656.19;;;3.94;100.00
47985;BME280;33753;52.912;-7.342;2023-02-28T08:35:07;102654.16;;;4.00;100.00
47985;BME280;33753;52.912;-7.342;2023-02-28T08:37:37;102658.66;;;3.99;100.00
47985;BME280;33753;52.912;-7.342;2023-02-28T08:40:08;102662.09;;;4.01;100.00
47985;BME280;33753;52.912;-7.342;2023-02-28T08:42:36;102665.53;;;4.05;100.00
47985;BME280;33753;52.912;-7.342;2023-02-28T08:45:05;102667.88;;;4.11;100.00
47985;BME280;33753;52.912;-7.342;2023-02-28T08:47:33;102666.81;;;4.15;100.00
47985;BME280;33753;52.912;-7.342;2023-02-28T08:50:02;102667.47;;;4.20;100.00
47985;BME280;33753;52.912;-7.342;2023-02-28T08:52:30;102671.50;;;4.29;100.00
47985;BME280;33753;52.912;-7.342;2023-02-28T08:54:58;102668.88;;;4.27;100.00
47985;BME280;33753;52.912;-7.342;2023-02-28T08:57:28;102670.31;;;4.35;100.00
47985;BME280;33753;52.912;-7.342;2023-02-28T08:59:56;102672.75;;;4.39;100.00
47985;BME280;33753;52.912;-7.342;2023-02-28T09:02:24;102673.63;;;4.40;100.00
47985;BME280;33753;52.912;-7.342;2023-02-28T09:04:52;102676.94;;;4.45;100.00
47985;BME280;33753;52.912;-7.342;2023-02-28T09:07:21;102676.78;;;4.48;100.00
47985;BME280;33753;52.912;-7.342;2023-02-28T09:09:50;102671.59;;;4.45;100.00
47985;BME280;33753;52.912;-7.342;2023-02-28T09:12:21;102676.94;;;4.45;100.00
47985;BME280;33753;52.912;-7.342;2023-02-28T09:14:51;102666.06;;;4.48;100.00
47985;BME280;33753;52.912;-7.342;2023-02-28T09:17:20;102670.00;;;4.41;100.00
47985;BME280;33753;52.912;-7.342;2023-02-28T09:19:48;102669.84;;;4.44;100.00
47985;BME280;33753;52.912;-7.342;2023-02-28T09:22:16;102676.06;;;4.44;100.00
47985;BME280;33753;52.912;-7.342;2023-02-28T09:24:46;102675.19;;;4.44;100.00
47985;BME280;33753;52.912;-7.342;2023-02-28T09:27:14;102676.94;;;4.45;100.00
47985;BME280;33753;52.912;-7.342;2023-02-28T09:29:43;102679.53;;;4.46;100.00
47985;BME280;33753;52.912;-7.342;2023-02-28T09:32:12;102673.47;;;4.43;100.00
47985;BME280;33753;52.912;-7.342;2023-02-28T09:34:40;102674.59;;;4.39;100.00
47985;BME280;33753;52.912;-7.342;2023-02-28T09:37:09;102674.34;;;4.43;100.00
47985;BME280;33753;52.912;-7.342;2023-02-28T09:39:37;102680.41;;;4.47;100.00
47985;BME280;33753;52.912;-7.342;2023-02-28T09:42:05;102676.00;;;4.46;100.00
47985;BME280;33753;52.912;-7.342;2023-02-28T09:44:35;102684.06;;;4.46;100.00
47985;BME280;33753;52.912;-7.342;2023-02-28T09:47:06;102679.38;;;4.49;100.00
47985;BME280;33753;52.912;-7.342;2023-02-28T09:49:39;102682.16;;;4.48;100.00
47985;BME280;33753;52.912;-7.342;2023-02-28T09:52:09;102672.19;;;4.50;100.00
47985;BME280;33753;52.912;-7.342;2023-02-28T09:54:38;102679.00;;;4.57;100.00
47985;BME280;33753;52.912;-7.342;2023-02-28T09:57:08;102679.47;;;4.65;100.00
47985;BME280;33753;52.912;-7.342;2023-02-28T10:02:34;102684.22;;;4.78;100.00
47985;BME280;33753;52.912;-7.342;2023-02-28T10:05:09;102682.88;;;4.87;100.00
47985;BME280;33753;52.912;-7.342;2023-02-28T10:07:46;102685.78;;;4.99;100.00
47985;BME280;33753;52.912;-7.342;2023-02-28T10:10:18;102687.84;;;5.12;100.00
47985;BME280;33753;52.912;-7.342;2023-02-28T10:12:48;102674.38;;;5.29;100.00
47985;BME280;33753;52.912;-7.342;2023-02-28T10:15:19;102677.34;;;5.41;100.00
47985;BME280;33753;52.912;-7.342;2023-02-28T10:17:50;102672.72;;;5.60;100.00
47985;BME280;33753;52.912;-7.342;2023-02-28T10:20:37;102666.84;;;5.69;100.00
47985;BME280;33753;52.912;-7.342;2023-02-28T10:23:09;102668.41;;;5.74;100.00
47985;BME280;33753;52.912;-7.342;2023-02-28T10:25:39;102673.78;;;5.89;100.00
47985;BME280;33753;52.912;-7.342;2023-02-28T10:28:11;102664.69;;;6.24;100.00
47985;BME280;33753;52.912;-7.342;2023-02-28T10:30:40;102659.72;;;6.32;100.00
47985;BME280;33753;52.912;-7.342;2023-02-28T10:33:15;102630.78;;;6.37;100.00
47985;BME280;33753;52.912;-7.342;2023-02-28T10:35:47;102622.56;;;6.55;100.00
47985;BME280;33753;52.912;-7.342;2023-02-28T10:38:16;102611.66;;;6.87;100.00
47985;BME280;33753;52.912;-7.342;2023-02-28T10:40:44;102615.53;;;6.97;100.00
47985;BME280;33753;52.912;-7.342;2023-02-28T10:43:22;102606.69;;;7.09;100.00
47985;BME280;33753;52.912;-7.342;2023-02-28T10:45:58;102593.25;;;7.24;100.00
47985;BME280;33753;52.912;-7.342;2023-02-28T10:48:30;102597.19;;;7.74;100.00
47985;BME280;33753;52.912;-7.342;2023-02-28T10:50:59;102581.84;;;8.17;100.00
47985;BME280;33753;52.912;-7.342;2023-02-28T10:53:30;102580.34;;;8.25;100.00
47985;BME280;33753;52.912;-7.342;2023-02-28T10:56:13;102575.25;;;8.08;100.00
47985;BME280;33753;52.912;-7.342;2023-02-28T10:58:47;102559.44;;;7.89;100.00
47985;BME280;33753;52.912;-7.342;2023-02-28T11:01:17;102560.00;;;7.67;100.00
47985;BME280;33753;52.912;-7.342;2023-02-28T11:03:45;102558.22;;;7.38;100.00
47985;BME280;33753;52.912;-7.342;2023-02-28T11:06:16;102553.81;;;7.23;100.00
47985;BME280;33753;52.912;-7.342;2023-02-28T11:08:47;102558.84;;;7.15;100.00
47985;BME280;33753;52.912;-7.342;2023-02-28T11:11:16;102555.66;;;7.08;100.00
47985;BME280;33753;52.912;-7.342;2023-02-28T11:13:45;102553.94;;;7.07;100.00
47985;BME280;33753;52.912;-7.342;2023-02-28T11:16:15;102558.25;;;6.95;100.00
47985;BME280;33753;52.912;-7.342;2023-02-28T11:18:46;102560.75;;;6.98;100.00
47985;BME280;33753;52.912;-7.342;2023-02-28T11:21:18;102559.22;;;7.08;100.00
47985;BME280;33753;52.912;-7.342;2023-02-28T11:23:46;102558.25;;;7.09;100.00
47985;BME280;33753;52.912;-7.342;2023-02-28T11:26:16;102560.34;;;7.04;100.00
47985;BME280;33753;52.912;-7.342;2023-02-28T11:29:08;102557.31;;;7.11;100.00
47985;BME280;33753;52.912;-7.342;2023-02-28T11:31:38;102560.28;;;7.20;100.00
47985;BME280;33753;52.912;-7.342;2023-02-28T11:34:22;102549.31;;;7.23;100.00
47985;BME280;33753;52.912;-7.342;2023-02-28T11:36:52;102541.72;;;7.16;100.00
47985;BME280;33753;52.912;-7.342;2023-02-28T11:39:22;102547.97;;;7.31;100.00
47985;BME280;33753;52.912;-7.342;2023-02-28T11:41:58;102550.31;;;7.50;100.00
47985;BME280;33753;52.912;-7.342;2023-02-28T11:44:33;102544.50;;;7.56;100.00
47985;BME280;33753;52.912;-7.342;2023-02-28T11:47:07;102545.47;;;7.69;100.00
47985;BME280;33753;52.912;-7.342;2023-02-28T11:49:42;102541.19;;;7.79;100.00
47985;BME280;33753;52.912;-7.342;2023-02-28T11:52:20;102537.31;;;7.84;100.00
47985;BME280;33753;52.912;-7.342;2023-02-28T11:54:57;102532.56;;;7.87;100.00
47985;BME280;33753;52.912;-7.342;2023-02-28T11:57:33;102534.75;;;7.82;100.00
47985;BME280;33753;52.912;-7.342;2023-02-28T12:00:07;102535.75;;;7.67;100.00
47985;BME280;33753;52.912;-7.342;2023-02-28T12:02:44;102541.06;;;7.54;100.00
47985;BME280;33753;52.912;-7.342;2023-02-28T12:05:22;102533.63;;;7.30;100.00
47985;BME280;33753;52.912;-7.342;2023-02-28T12:07:58;102539.28;;;7.40;100.00
47985;BME280;33753;52.912;-7.342;2023-02-28T12:10:29;102543.72;;;7.68;100.00
47985;BME280;33753;52.912;-7.342;2023-02-28T12:13:03;102537.16;;;7.72;100.00
47985;BME280;33753;52.912;-7.342;2023-02-28T12:15:40;102541.94;;;7.54;100.00
47985;BME280;33753;52.912;-7.342;2023-02-28T12:18:22;102534.13;;;7.64;100.00
47985;BME280;33753;52.912;-7.342;2023-02-28T12:20:53;102535.06;;;7.77;100.00
47985;BME280;33753;52.912;-7.342;2023-02-28T12:23:36;102529.88;;;7.60;100.00
47985;BME280;33753;52.912;-7.342;2023-02-28T12:26:12;102541.28;;;7.51;100.00
47985;BME280;33753;52.912;-7.342;2023-02-28T12:28:43;102528.34;;;7.14;100.00
47985;BME280;33753;52.912;-7.342;2023-02-28T12:31:15;102523.66;;;7.18;100.00
47985;BME280;33753;52.912;-7.342;2023-02-28T12:33:46;102524.81;;;7.14;100.00
47985;BME280;33753;52.912;-7.342;2023-02-28T12:36:16;102525.00;;;7.11;100.00
47985;BME280;33753;52.912;-7.342;2023-02-28T12:38:50;102526.50;;;7.43;100.00
47985;BME280;33753;52.912;-7.342;2023-02-28T12:41:26;102528.19;;;7.59;100.00
47985;BME280;33753;52.912;-7.342;2023-02-28T12:43:57;102518.81;;;7.92;100.00
47985;BME280;33753;52.912;-7.342;2023-02-28T12:46:27;102517.75;;;7.94;100.00
47985;BME280;33753;52.912;-7.342;2023-02-28T12:48:58;102510.16;;;7.87;100.00
47985;BME280;33753;52.912;-7.342;2023-02-28T12:51:28;102508.59;;;7.70;100.00
47985;BME280;33753;52.912;-7.342;2023-02-28T12:54:01;102510.06;;;7.61;100.00
47985;BME280;33753;52.912;-7.342;2023-02-28T12:56:34;102517.56;;;7.70;100.00
47985;BME280;33753;52.912;-7.342;2023-02-28T12:59:07;102499.34;;;7.47;100.00
47985;BME280;33753;52.912;-7.342;2023-02-28T13:01:42;102512.63;;;7.50;100.00
47985;BME280;33753;52.912;-7.342;2023-02-28T13:07:17;102502.91;;;7.47;100.00
47985;BME280;33753;52.912;-7.342;2023-02-28T13:09:53;102495.03;;;7.44;100.00
47985;BME280;33753;52.912;-7.342;2023-02-28T13:12:22;102498.28;;;7.22;100.00